sensor_id;sensor_type;location;lat;lon;timestamp;P1;durP1;ratioP1;P2;durP2;ratioP2
7359;SDS011;3720;48.274;7.796;2023-03-19T00:00:54;7.50;;;3.88;;
7359;SDS011;3720;48.274;7.796;2023-03-19T00:03:26;8.90;;;3.85;;
7359;SDS011;3720;48.274;7.796;2023-03-19T00:05:58;5.97;;;3.70;;
7359;SDS011;3720;48.274;7.796;2023-03-19T00:08:30;8.70;;;4.20;;
7359;SDS011;3720;48.274;7.796;2023-03-19T00:11:05;7.18;;;3.78;;
7359;SDS011;3720;48.274;7.796;2023-03-19T00:13:38;6.28;;;3.75;;
7359;SDS011;3720;48.274;7.796;2023-03-19T00:16:12;8.48;;;4.20;;
7359;SDS011;3720;48.274;7.796;2023-03-19T00:18:44;8.35;;;4.25;;
7359;SDS011;3720;48.274;7.796;2023-03-19T00:21:16;8.65;;;3.80;;
7359;SDS011;3720;48.274;7.796;2023-03-19T00:23:48;7.78;;;3.90;;
7359;SDS011;3720;48.274;7.796;2023-03-19T00:26:21;6.03;;;3.53;;
7359;SDS011;3720;48.274;7.796;2023-03-19T00:28:52;7.47;;;3.65;;
7359;SDS011;3720;48.274;7.796;2023-03-19T00:31:27;9.07;;;3.70;;
7359;SDS011;3720;48.274;7.796;2023-03-19T00:34:00;6.18;;;3.80;;
7359;SDS011;3720;48.274;7.796;2023-03-19T00:36:32;6.70;;;3.92;;
7359;SDS011;3720;48.274;7.796;2023-03-19T00:39:04;6.78;;;3.90;;
7359;SDS011;3720;48.274;7.796;2023-03-19T00:41:39;7.47;;;3.90;;
7359;SDS011;3720;48.274;7.796;2023-03-19T00:44:11;8.82;;;4.78;;
7359;SDS011;3720;48.274;7.796;2023-03-19T00:46:44;9.80;;;4.30;;
7359;SDS011;3720;48.274;7.796;2023-03-19T00:49:16;8.65;;;4.03;;
7359;SDS011;3720;48.274;7.796;2023-03-19T00:51:48;9.38;;;4.22;;
7359;SDS011;3720;48.274;7.796;2023-03-19T00:54:20;7.07;;;4.05;;
7359;SDS011;3720;48.274;7.796;2023-03-19T00:56:52;9.57;;;4.15;;
7359;SDS011;3720;48.274;7.796;2023-03-19T00:59:24;7.00;;;3.95;;
7359;SDS011;3720;48.274;7.796;2023-03-19T01:01:57;8.50;;;3.67;;
7359;SDS011;3720;48.274;7.796;2023-03-19T01:04:30;7.97;;;3.47;;
7359;SDS011;3720;48.274;7.796;2023-03-19T01:07:02;5.85;;;3.13;;
7359;SDS011;3720;48.274;7.796;2023-03-19T01:09:34;6.10;;;2.95;;
7359;SDS011;3720;48.274;7.796;2023-03-19T01:12:06;7.25;;;3.45;;
7359;SDS011;3720;48.274;7.796;2023-03-19T01:14:39;7.80;;;3.55;;
7359;SDS011;3720;48.274;7.796;2023-03-19T01:17:13;9.15;;;3.33;;
7359;SDS011;3720;48.274;7.796;2023-03-19T01:19:44;6.00;;;3.42;;
7359;SDS011;3720;48.274;7.796;2023-03-19T01:22:17;7.57;;;3.70;;
7359;SDS011;3720;48.274;7.796;2023-03-19T01:24:49;7.00;;;3.63;;
7359;SDS011;3720;48.274;7.796;2023-03-19T01:27:21;5.63;;;3.30;;
7359;SDS011;3720;48.274;7.796;2023-03-19T01:29:53;5.43;;;3.50;;
7359;SDS011;3720;48.274;7.796;2023-03-19T01:32:26;7.85;;;3.63;;
7359;SDS011;3720;48.274;7.796;2023-03-19T01:34:58;7.43;;;3.50;;
7359;SDS011;3720;48.274;7.796;2023-03-19T01:37:30;6.68;;;3.60;;
7359;SDS011;3720;48.274;7.796;2023-03-19T01:40:03;6.07;;;3.40;;
7359;SDS011;3720;48.274;7.796;2023-03-19T01:42:49;6.47;;;3.58;;
7359;SDS011;3720;48.274;7.796;2023-03-19T01:45:32;6.50;;;3.35;;
7359;SDS011;3720;48.274;7.796;2023-03-19T01:48:07;5.47;;;2.95;;
7359;SDS011;3720;48.274;7.796;2023-03-19T01:50:47;6.20;;;3.38;;
7359;SDS011;3720;48.274;7.796;2023-03-19T01:53:23;5.18;;;2.92;;
7359;SDS011;3720;48.274;7.796;2023-03-19T01:55:59;6.15;;;3.10;;
7359;SDS011;3720;48.274;7.796;2023-03-19T01:58:34;5.27;;;2.87;;
7359;SDS011;3720;48.274;7.796;2023-03-19T02:01:06;5.28;;;2.70;;
7359;SDS011;3720;48.274;7.796;2023-03-19T02:03:39;4.95;;;2.70;;
7359;SDS011;3720;48.274;7.796;2023-03-19T02:06:12;4.07;;;2.25;;
7359;SDS011;3720;48.274;7.796;2023-03-19T02:08:44;4.65;;;2.42;;
7359;SDS011;3720;48.274;7.796;2023-03-19T02:11:17;3.20;;;2.10;;
7359;SDS011;3720;48.274;7.796;2023-03-19T02:13:50;4.47;;;2.55;;
7359;SDS011;3720;48.274;7.796;2023-03-19T02:16:23;4.05;;;2.28;;
7359;SDS011;3720;48.274;7.796;2023-03-19T02:18:57;3.60;;;2.30;;
7359;SDS011;3720;48.274;7.796;2023-03-19T02:21:30;5.72;;;2.13;;
7359;SDS011;3720;48.274;7.796;2023-03-19T02:24:05;4.10;;;2.10;;
7359;SDS011;3720;48.274;7.796;2023-03-19T02:26:43;5.88;;;2.13;;
7359;SDS011;3720;48.274;7.796;2023-03-19T02:29:17;3.58;;;2.08;;
7359;SDS011;3720;48.274;7.796;2023-03-19T02:31:49;2.67;;;1.90;;
7359;SDS011;3720;48.274;7.796;2023-03-19T02:34:35;4.78;;;2.10;;
7359;SDS011;3720;48.274;7.796;2023-03-19T02:37:12;4.47;;;1.80;;
7359;SDS011;3720;48.274;7.796;2023-03-19T02:39:48;3.83;;;1.52;;
7359;SDS011;3720;48.274;7.796;2023-03-19T02:42:26;2.83;;;1.30;;
7359;SDS011;3720;48.274;7.796;2023-03-19T02:44:59;3.15;;;1.60;;
7359;SDS011;3720;48.274;7.796;2023-03-19T02:47:31;3.55;;;1.63;;
7359;SDS011;3720;48.274;7.796;2023-03-19T02:50:03;4.13;;;1.50;;
7359;SDS011;3720;48.274;7.796;2023-03-19T02:52:35;2.58;;;1.50;;
7359;SDS011;3720;48.274;7.796;2023-03-19T02:55:07;3.80;;;1.60;;
7359;SDS011;3720;48.274;7.796;2023-03-19T02:57:41;3.50;;;1.60;;
7359;SDS011;3720;48.274;7.796;2023-03-19T03:00:13;4.38;;;1.63;;
7359;SDS011;3720;48.274;7.796;2023-03-19T03:02:47;4.00;;;1.70;;
7359;SDS011;3720;48.274;7.796;2023-03-19T03:05:20;4.10;;;1.63;;
7359;SDS011;3720;48.274;7.796;2023-03-19T03:07:52;2.28;;;1.58;;
7359;SDS011;3720;48.274;7.796;2023-03-19T03:10:24;2.67;;;1.50;;
7359;SDS011;3720;48.274;7.796;2023-03-19T03:12:58;3.00;;;1.52;;
7359;SDS011;3720;48.274;7.796;2023-03-19T03:15:30;7.15;;;1.80;;
7359;SDS011;3720;48.274;7.796;2023-03-19T03:18:02;3.75;;;1.67;;
7359;SDS011;3720;48.274;7.796;2023-03-19T03:20:35;4.03;;;1.70;;
7359;SDS011;3720;48.274;7.796;2023-03-19T03:23:06;2.30;;;1.48;;
7359;SDS011;3720;48.274;7.796;2023-03-19T03:25:38;2.92;;;1.60;;
7359;SDS011;3720;48.274;7.796;2023-03-19T03:28:12;3.25;;;1.73;;
7359;SDS011;3720;48.274;7.796;2023-03-19T03:30:44;4.53;;;1.80;;
7359;SDS011;3720;48.274;7.796;2023-03-19T03:33:16;3.55;;;1.80;;
7359;SDS011;3720;48.274;7.796;2023-03-19T03:35:48;3.15;;;1.73;;
7359;SDS011;3720;48.274;7.796;2023-03-19T03:38:20;2.70;;;1.80;;
7359;SDS011;3720;48.274;7.796;2023-03-19T03:40:52;2.95;;;1.70;;
7359;SDS011;3720;48.274;7.796;2023-03-19T03:43:26;3.55;;;1.75;;
7359;SDS011;3720;48.274;7.796;2023-03-19T03:45:58;2.88;;;1.60;;
7359;SDS011;3720;48.274;7.796;2023-03-19T03:48:30;3.53;;;1.50;;
7359;SDS011;3720;48.274;7.796;2023-03-19T03:51:02;3.22;;;1.70;;
7359;SDS011;3720;48.274;7.796;2023-03-19T03:53:34;3.15;;;1.50;;
7359;SDS011;3720;48.274;7.796;2023-03-19T03:56:06;2.97;;;1.50;;
7359;SDS011;3720;48.274;7.796;2023-03-19T03:58:40;2.28;;;1.35;;
7359;SDS011;3720;48.274;7.796;2023-03-19T04:01:12;3.35;;;1.50;;
7359;SDS011;3720;48.274;7.796;2023-03-19T04:03:46;2.88;;;1.60;;
7359;SDS011;3720;48.274;7.796;2023-03-19T04:06:18;3.88;;;1.55;;
7359;SDS011;3720;48.274;7.796;2023-03-19T04:08:53;3.72;;;1.70;;
7359;SDS011;3720;48.274;7.796;2023-03-19T04:11:25;2.35;;;1.38;;
7359;SDS011;3720;48.274;7.796;2023-03-19T04:13:58;3.85;;;1.55;;
7359;SDS011;3720;48.274;7.796;2023-03-19T04:16:32;3.20;;;1.50;;
7359;SDS011;3720;48.274;7.796;2023-03-19T04:19:04;3.55;;;1.70;;
7359;SDS011;3720;48.274;7.796;2023-03-19T04:21:37;4.88;;;1.88;;
7359;SDS011;3720;48.274;7.796;2023-03-19T04:24:09;3.38;;;1.67;;
7359;SDS011;3720;48.274;7.796;2023-03-19T04:26:41;2.55;;;1.60;;
7359;SDS011;3720;48.274;7.796;2023-03-19T04:29:14;3.42;;;1.80;;
7359;SDS011;3720;48.274;7.796;2023-03-19T04:31:47;3.80;;;1.75;;
7359;SDS011;3720;48.274;7.796;2023-03-19T04:34:21;2.25;;;1.40;;
7359;SDS011;3720;48.274;7.796;2023-03-19T04:36:53;5.07;;;1.83;;
7359;SDS011;3720;48.274;7.796;2023-03-19T04:39:25;3.63;;;1.75;;
7359;SDS011;3720;48.274;7.796;2023-03-19T04:41:57;3.17;;;1.45;;
7359;SDS011;3720;48.274;7.796;2023-03-19T04:44:31;2.55;;;1.48;;
7359;SDS011;3720;48.274;7.796;2023-03-19T04:47:03;4.85;;;2.00;;
7359;SDS011;3720;48.274;7.796;2023-03-19T04:49:35;3.80;;;2.00;;
7359;SDS011;3720;48.274;7.796;2023-03-19T04:52:07;3.63;;;1.70;;
7359;SDS011;3720;48.274;7.796;2023-03-19T04:54:39;4.13;;;1.80;;
7359;SDS011;3720;48.274;7.796;2023-03-19T04:57:11;4.60;;;1.60;;
7359;SDS011;3720;48.274;7.796;2023-03-19T04:59:44;3.08;;;1.70;;
7359;SDS011;3720;48.274;7.796;2023-03-19T05:02:16;3.85;;;1.70;;
7359;SDS011;3720;48.274;7.796;2023-03-19T05:04:48;3.42;;;1.80;;
7359;SDS011;3720;48.274;7.796;2023-03-19T05:07:20;3.90;;;2.00;;
7359;SDS011;3720;48.274;7.796;2023-03-19T05:09:52;4.20;;;1.83;;
7359;SDS011;3720;48.274;7.796;2023-03-19T05:12:24;3.38;;;1.85;;
7359;SDS011;3720;48.274;7.796;2023-03-19T05:14:57;3.28;;;1.83;;
7359;SDS011;3720;48.274;7.796;2023-03-19T05:17:30;3.00;;;1.92;;
7359;SDS011;3720;48.274;7.796;2023-03-19T05:20:02;3.35;;;1.95;;
7359;SDS011;3720;48.274;7.796;2023-03-19T05:22:35;3.55;;;2.00;;
7359;SDS011;3720;48.274;7.796;2023-03-19T05:25:07;4.30;;;2.08;;
7359;SDS011;3720;48.274;7.796;2023-03-19T05:27:39;4.32;;;1.90;;
7359;SDS011;3720;48.274;7.796;2023-03-19T05:30:13;4.30;;;1.90;;
7359;SDS011;3720;48.274;7.796;2023-03-19T05:32:47;4.93;;;2.10;;
7359;SDS011;3720;48.274;7.796;2023-03-19T05:35:19;4.22;;;2.20;;
7359;SDS011;3720;48.274;7.796;2023-03-19T05:37:51;3.78;;;2.03;;
7359;SDS011;3720;48.274;7.796;2023-03-19T05:40:24;4.32;;;2.47;;
7359;SDS011;3720;48.274;7.796;2023-03-19T05:42:56;5.53;;;2.00;;
7359;SDS011;3720;48.274;7.796;2023-03-19T05:45:29;5.32;;;2.58;;
7359;SDS011;3720;48.274;7.796;2023-03-19T05:48:01;3.85;;;2.40;;
7359;SDS011;3720;48.274;7.796;2023-03-19T05:50:35;3.83;;;2.10;;
7359;SDS011;3720;48.274;7.796;2023-03-19T05:53:07;4.15;;;2.20;;
7359;SDS011;3720;48.274;7.796;2023-03-19T05:55:39;5.95;;;2.58;;
7359;SDS011;3720;48.274;7.796;2023-03-19T05:58:10;5.15;;;2.40;;
7359;SDS011;3720;48.274;7.796;2023-03-19T06:00:44;4.43;;;2.20;;
7359;SDS011;3720;48.274;7.796;2023-03-19T06:03:17;4.22;;;2.15;;
7359;SDS011;3720;48.274;7.796;2023-03-19T06:05:49;5.00;;;2.30;;
7359;SDS011;3720;48.274;7.796;2023-03-19T06:08:21;4.95;;;2.20;;
7359;SDS011;3720;48.274;7.796;2023-03-19T06:10:53;4.03;;;2.25;;
7359;SDS011;3720;48.274;7.796;2023-03-19T06:13:25;4.07;;;2.35;;
7359;SDS011;3720;48.274;7.796;2023-03-19T06:15:59;5.22;;;2.40;;
7359;SDS011;3720;48.274;7.796;2023-03-19T06:18:31;5.43;;;2.40;;
7359;SDS011;3720;48.274;7.796;2023-03-19T06:21:04;3.45;;;2.15;;
7359;SDS011;3720;48.274;7.796;2023-03-19T06:23:36;6.30;;;2.35;;
7359;SDS011;3720;48.274;7.796;2023-03-19T06:26:08;6.07;;;2.38;;
7359;SDS011;3720;48.274;7.796;2023-03-19T06:28:40;6.43;;;2.47;;
7359;SDS011;3720;48.274;7.796;2023-03-19T06:31:13;4.20;;;2.30;;
7359;SDS011;3720;48.274;7.796;2023-03-19T06:33:45;4.03;;;2.05;;
7359;SDS011;3720;48.274;7.796;2023-03-19T06:36:18;8.57;;;2.60;;
7359;SDS011;3720;48.274;7.796;2023-03-19T06:38:50;4.40;;;2.35;;
7359;SDS011;3720;48.274;7.796;2023-03-19T06:41:22;4.65;;;2.40;;
7359;SDS011;3720;48.274;7.796;2023-03-19T06:43:55;4.95;;;2.30;;
7359;SDS011;3720;48.274;7.796;2023-03-19T06:46:28;6.05;;;2.50;;
7359;SDS011;3720;48.274;7.796;2023-03-19T06:49:00;6.75;;;2.30;;
7359;SDS011;3720;48.274;7.796;2023-03-19T06:51:32;4.45;;;2.30;;
7359;SDS011;3720;48.274;7.796;2023-03-19T06:54:04;7.25;;;2.58;;
7359;SDS011;3720;48.274;7.796;2023-03-19T06:56:36;4.03;;;2.30;;
7359;SDS011;3720;48.274;7.796;2023-03-19T06:59:08;5.55;;;2.20;;
7359;SDS011;3720;48.274;7.796;2023-03-19T07:01:43;5.35;;;2.28;;
7359;SDS011;3720;48.274;7.796;2023-03-19T07:04:15;7.20;;;2.45;;
7359;SDS011;3720;48.274;7.796;2023-03-19T07:06:47;4.78;;;2.30;;
7359;SDS011;3720;48.274;7.796;2023-03-19T07:09:19;6.45;;;2.50;;
7359;SDS011;3720;48.274;7.796;2023-03-19T07:11:52;5.47;;;2.47;;
7359;SDS011;3720;48.274;7.796;2023-03-19T07:14:24;4.30;;;2.42;;
7359;SDS011;3720;48.274;7.796;2023-03-19T07:16:58;6.78;;;2.47;;
7359;SDS011;3720;48.274;7.796;2023-03-19T07:19:30;5.80;;;2.28;;
7359;SDS011;3720;48.274;7.796;2023-03-19T07:22:02;5.35;;;2.40;;
7359;SDS011;3720;48.274;7.796;2023-03-19T07:24:34;5.70;;;2.40;;
7359;SDS011;3720;48.274;7.796;2023-03-19T07:27:06;4.22;;;2.30;;
7359;SDS011;3720;48.274;7.796;2023-03-19T07:29:38;4.50;;;2.47;;
7359;SDS011;3720;48.274;7.796;2023-03-19T07:32:12;5.25;;;2.55;;
7359;SDS011;3720;48.274;7.796;2023-03-19T07:34:44;8.43;;;2.63;;
7359;SDS011;3720;48.274;7.796;2023-03-19T07:37:16;5.15;;;2.55;;
7359;SDS011;3720;48.274;7.796;2023-03-19T07:39:48;5.78;;;2.40;;
7359;SDS011;3720;48.274;7.796;2023-03-19T07:42:20;5.40;;;2.40;;
7359;SDS011;3720;48.274;7.796;2023-03-19T07:44:52;6.35;;;2.63;;
7359;SDS011;3720;48.274;7.796;2023-03-19T07:47:25;6.68;;;2.60;;
7359;SDS011;3720;48.274;7.796;2023-03-19T07:49:58;5.13;;;2.65;;
7359;SDS011;3720;48.274;7.796;2023-03-19T07:52:30;3.85;;;2.53;;
7359;SDS011;3720;48.274;7.796;2023-03-19T07:55:02;5.43;;;2.45;;
7359;SDS011;3720;48.274;7.796;2023-03-19T07:57:35;5.65;;;2.60;;
7359;SDS011;3720;48.274;7.796;2023-03-19T08:00:07;4.50;;;2.10;;
7359;SDS011;3720;48.274;7.796;2023-03-19T08:02:41;7.22;;;2.35;;
7359;SDS011;3720;48.274;7.796;2023-03-19T08:05:13;8.05;;;2.70;;
7359;SDS011;3720;48.274;7.796;2023-03-19T08:07:46;6.53;;;2.55;;
7359;SDS011;3720;48.274;7.796;2023-03-19T08:10:20;8.15;;;2.60;;
7359;SDS011;3720;48.274;7.796;2023-03-19T08:12:52;5.32;;;2.50;;
7359;SDS011;3720;48.274;7.796;2023-03-19T08:15:23;5.07;;;2.60;;
7359;SDS011;3720;48.274;7.796;2023-03-19T08:17:57;4.03;;;2.50;;
7359;SDS011;3720;48.274;7.796;2023-03-19T08:20:30;5.35;;;2.65;;
7359;SDS011;3720;48.274;7.796;2023-03-19T08:23:02;6.78;;;2.35;;
7359;SDS011;3720;48.274;7.796;2023-03-19T08:25:35;6.38;;;2.70;;
7359;SDS011;3720;48.274;7.796;2023-03-19T08:28:07;5.75;;;2.47;;
7359;SDS011;3720;48.274;7.796;2023-03-19T08:30:39;5.63;;;2.60;;
7359;SDS011;3720;48.274;7.796;2023-03-19T08:33:12;7.10;;;2.70;;
7359;SDS011;3720;48.274;7.796;2023-03-19T08:35:44;5.47;;;2.70;;
7359;SDS011;3720;48.274;7.796;2023-03-19T08:38:16;5.43;;;2.40;;
7359;SDS011;3720;48.274;7.796;2023-03-19T08:40:49;5.00;;;2.50;;
7359;SDS011;3720;48.274;7.796;2023-03-19T08:43:21;5.88;;;2.38;;
7359;SDS011;3720;48.274;7.796;2023-03-19T08:45:53;5.68;;;2.40;;
7359;SDS011;3720;48.274;7.796;2023-03-19T08:48:26;6.35;;;2.50;;
7359;SDS011;3720;48.274;7.796;2023-03-19T08:50:59;6.57;;;2.42;;
7359;SDS011;3720;48.274;7.796;2023-03-19T08:53:32;6.72;;;2.70;;
7359;SDS011;3720;48.274;7.796;2023-03-19T08:56:05;11.05;;;2.67;;
7359;SDS011;3720;48.274;7.796;2023-03-19T08:58:38;9.20;;;2.65;;
7359;SDS011;3720;48.274;7.796;2023-03-19T09:01:11;7.30;;;2.67;;
7359;SDS011;3720;48.274;7.796;2023-03-19T09:03:46;5.03;;;2.35;;
7359;SDS011;3720;48.274;7.796;2023-03-19T09:06:18;5.60;;;2.50;;
7359;SDS011;3720;48.274;7.796;2023-03-19T09:08:50;5.22;;;2.58;;
7359;SDS011;3720;48.274;7.796;2023-03-19T09:11:22;4.28;;;2.45;;
7359;SDS011;3720;48.274;7.796;2023-03-19T09:13:54;5.15;;;2.80;;
7359;SDS011;3720;48.274;7.796;2023-03-19T09:16:26;7.82;;;2.45;;
7359;SDS011;3720;48.274;7.796;2023-03-19T09:19:00;5.15;;;2.60;;
7359;SDS011;3720;48.274;7.796;2023-03-19T09:21:32;4.47;;;2.30;;
7359;SDS011;3720;48.274;7.796;2023-03-19T09:24:04;6.07;;;2.38;;
7359;SDS011;3720;48.274;7.796;2023-03-19T09:26:37;5.68;;;2.75;;
7359;SDS011;3720;48.274;7.796;2023-03-19T09:29:08;5.68;;;2.60;;
7359;SDS011;3720;48.274;7.796;2023-03-19T09:31:40;5.28;;;2.50;;
7359;SDS011;3720;48.274;7.796;2023-03-19T09:34:14;4.90;;;2.45;;
7359;SDS011;3720;48.274;7.796;2023-03-19T09:36:47;6.40;;;2.40;;
7359;SDS011;3720;48.274;7.796;2023-03-19T09:39:19;6.30;;;2.33;;
7359;SDS011;3720;48.274;7.796;2023-03-19T09:41:56;6.75;;;2.60;;
7359;SDS011;3720;48.274;7.796;2023-03-19T09:44:36;5.22;;;2.58;;
7359;SDS011;3720;48.274;7.796;2023-03-19T09:47:15;6.20;;;2.45;;
7359;SDS011;3720;48.274;7.796;2023-03-19T09:49:58;6.63;;;2.58;;
7359;SDS011;3720;48.274;7.796;2023-03-19T09:52:34;7.75;;;2.50;;
7359;SDS011;3720;48.274;7.796;2023-03-19T09:55:14;3.80;;;2.20;;
7359;SDS011;3720;48.274;7.796;2023-03-19T09:58:04;4.20;;;2.03;;
7359;SDS011;3720;48.274;7.796;2023-03-19T10:00:45;5.22;;;2.47;;
7359;SDS011;3720;48.274;7.796;2023-03-19T10:03:26;6.13;;;2.20;;
7359;SDS011;3720;48.274;7.796;2023-03-19T10:06:13;4.22;;;2.08;;
7359;SDS011;3720;48.274;7.796;2023-03-19T10:09:00;6.22;;;2.20;;
7359;SDS011;3720;48.274;7.796;2023-03-19T10:11:58;3.47;;;1.85;;
7359;SDS011;3720;48.274;7.796;2023-03-19T10:14:42;6.72;;;2.00;;
7359;SDS011;3720;48.274;7.796;2023-03-19T10:17:24;6.97;;;2.25;;
7359;SDS011;3720;48.274;7.796;2023-03-19T10:20:02;4.43;;;1.85;;
7359;SDS011;3720;48.274;7.796;2023-03-19T10:25:16;7.13;;;2.00;;
7359;SDS011;3720;48.274;7.796;2023-03-19T10:27:52;5.20;;;2.30;;
7359;SDS011;3720;48.274;7.796;2023-03-19T10:30:27;3.85;;;1.80;;
7359;SDS011;3720;48.274;7.796;2023-03-19T10:33:06;7.85;;;2.20;;
7359;SDS011;3720;48.274;7.796;2023-03-19T10:35:48;4.57;;;1.90;;
7359;SDS011;3720;48.274;7.796;2023-03-19T10:38:29;5.35;;;1.88;;
7359;SDS011;3720;48.274;7.796;2023-03-19T10:41:03;5.43;;;1.80;;
7359;SDS011;3720;48.274;7.796;2023-03-19T10:43:51;4.05;;;1.70;;
7359;SDS011;3720;48.274;7.796;2023-03-19T10:46:26;3.67;;;1.50;;
7359;SDS011;3720;48.274;7.796;2023-03-19T10:49:10;2.17;;;1.45;;
7359;SDS011;3720;48.274;7.796;2023-03-19T10:51:43;4.05;;;1.63;;
7359;SDS011;3720;48.274;7.796;2023-03-19T10:54:21;3.55;;;1.42;;
7359;SDS011;3720;48.274;7.796;2023-03-19T10:56:55;3.13;;;1.60;;
7359;SDS011;3720;48.274;7.796;2023-03-19T10:59:30;3.75;;;1.40;;
7359;SDS011;3720;48.274;7.796;2023-03-19T11:02:15;2.88;;;1.50;;
7359;SDS011;3720;48.274;7.796;2023-03-19T11:04:48;2.90;;;1.70;;
7359;SDS011;3720;48.274;7.796;2023-03-19T11:07:37;2.72;;;1.30;;
7359;SDS011;3720;48.274;7.796;2023-03-19T11:10:12;2.67;;;1.45;;
7359;SDS011;3720;48.274;7.796;2023-03-19T11:12:46;2.70;;;1.20;;
7359;SDS011;3720;48.274;7.796;2023-03-19T11:15:25;2.92;;;1.30;;
7359;SDS011;3720;48.274;7.796;2023-03-19T11:18:07;2.58;;;1.13;;
7359;SDS011;3720;48.274;7.796;2023-03-19T11:20:48;2.47;;;0.98;;
7359;SDS011;3720;48.274;7.796;2023-03-19T11:23:26;2.08;;;1.15;;
7359;SDS011;3720;48.274;7.796;2023-03-19T11:26:01;2.35;;;1.10;;
7359;SDS011;3720;48.274;7.796;2023-03-19T11:28:33;1.52;;;0.98;;
7359;SDS011;3720;48.274;7.796;2023-03-19T11:31:09;2.13;;;1.10;;
7359;SDS011;3720;48.274;7.796;2023-03-19T11:33:54;3.30;;;1.30;;
7359;SDS011;3720;48.274;7.796;2023-03-19T11:36:38;3.67;;;1.35;;
7359;SDS011;3720;48.274;7.796;2023-03-19T11:39:16;3.15;;;1.20;;
7359;SDS011;3720;48.274;7.796;2023-03-19T11:42:04;3.17;;;1.10;;
7359;SDS011;3720;48.274;7.796;2023-03-19T11:44:51;4.93;;;1.17;;
7359;SDS011;3720;48.274;7.796;2023-03-19T11:47:32;3.28;;;1.10;;
7359;SDS011;3720;48.274;7.796;2023-03-19T11:50:13;2.55;;;1.10;;
7359;SDS011;3720;48.274;7.796;2023-03-19T11:53:02;2.28;;;1.27;;
7359;SDS011;3720;48.274;7.796;2023-03-19T11:55:46;2.33;;;1.23;;
7359;SDS011;3720;48.274;7.796;2023-03-19T11:58:33;2.25;;;1.20;;
7359;SDS011;3720;48.274;7.796;2023-03-19T12:01:22;1.15;;;1.05;;
7359;SDS011;3720;48.274;7.796;2023-03-19T12:04:22;1.13;;;0.80;;
7359;SDS011;3720;48.274;7.796;2023-03-19T12:07:06;3.00;;;0.80;;
7359;SDS011;3720;48.274;7.796;2023-03-19T12:09:46;1.70;;;0.82;;
7359;SDS011;3720;48.274;7.796;2023-03-19T12:12:25;1.10;;;0.65;;
7359;SDS011;3720;48.274;7.796;2023-03-19T12:15:11;2.15;;;0.70;;
7359;SDS011;3720;48.274;7.796;2023-03-19T12:17:51;1.10;;;0.70;;
7359;SDS011;3720;48.274;7.796;2023-03-19T12:20:33;0.70;;;0.50;;
7359;SDS011;3720;48.274;7.796;2023-03-19T12:23:14;0.65;;;0.60;;
7359;SDS011;3720;48.274;7.796;2023-03-19T12:26:01;0.77;;;0.68;;
7359;SDS011;3720;48.274;7.796;2023-03-19T12:28:36;2.85;;;0.80;;
7359;SDS011;3720;48.274;7.796;2023-03-19T12:34:02;1.80;;;0.70;;
7359;SDS011;3720;48.274;7.796;2023-03-19T12:36:51;0.80;;;0.52;;
7359;SDS011;3720;48.274;7.796;2023-03-19T12:39:27;1.17;;;0.60;;
7359;SDS011;3720;48.274;7.796;2023-03-19T12:42:02;1.00;;;0.80;;
7359;SDS011;3720;48.274;7.796;2023-03-19T12:44:39;1.27;;;0.70;;
7359;SDS011;3720;48.274;7.796;2023-03-19T12:47:18;0.63;;;0.60;;
7359;SDS011;3720;48.274;7.796;2023-03-19T12:49:55;1.27;;;0.60;;
7359;SDS011;3720;48.274;7.796;2023-03-19T12:52:32;1.10;;;0.70;;
7359;SDS011;3720;48.274;7.796;2023-03-19T12:55:11;0.73;;;0.60;;
7359;SDS011;3720;48.274;7.796;2023-03-19T12:57:49;1.38;;;0.60;;
7359;SDS011;3720;48.274;7.796;2023-03-19T13:00:25;1.70;;;0.75;;
7359;SDS011;3720;48.274;7.796;2023-03-19T13:03:05;1.65;;;0.90;;
7359;SDS011;3720;48.274;7.796;2023-03-19T13:05:44;1.05;;;0.85;;
7359;SDS011;3720;48.274;7.796;2023-03-19T13:08:22;1.42;;;0.82;;
7359;SDS011;3720;48.274;7.796;2023-03-19T13:11:00;1.00;;;0.80;;
7359;SDS011;3720;48.274;7.796;2023-03-19T13:13:39;1.88;;;0.80;;
7359;SDS011;3720;48.274;7.796;2023-03-19T13:16:27;2.40;;;1.00;;
7359;SDS011;3720;48.274;7.796;2023-03-19T13:19:06;0.90;;;0.80;;
7359;SDS011;3720;48.274;7.796;2023-03-19T13:21:47;1.45;;;1.00;;
7359;SDS011;3720;48.274;7.796;2023-03-19T13:24:23;3.28;;;1.02;;
7359;SDS011;3720;48.274;7.796;2023-03-19T13:26:57;1.40;;;1.10;;
7359;SDS011;3720;48.274;7.796;2023-03-19T13:29:31;3.67;;;1.20;;
7359;SDS011;3720;48.274;7.796;2023-03-19T13:32:06;2.53;;;0.98;;
7359;SDS011;3720;48.274;7.796;2023-03-19T13:34:41;1.85;;;1.10;;
7359;SDS011;3720;48.274;7.796;2023-03-19T13:37:14;2.30;;;1.13;;
7359;SDS011;3720;48.274;7.796;2023-03-19T13:39:48;3.67;;;1.10;;
7359;SDS011;3720;48.274;7.796;2023-03-19T13:42:22;2.30;;;1.40;;
7359;SDS011;3720;48.274;7.796;2023-03-19T13:47:55;2.72;;;1.13;;
7359;SDS011;3720;48.274;7.796;2023-03-19T13:50:31;7.32;;;1.20;;
7359;SDS011;3720;48.274;7.796;2023-03-19T13:53:31;4.15;;;1.25;;
7359;SDS011;3720;48.274;7.796;2023-03-19T13:56:08;2.85;;;1.25;;
7359;SDS011;3720;48.274;7.796;2023-03-19T13:58:45;3.13;;;1.20;;
7359;SDS011;3720;48.274;7.796;2023-03-19T14:04:21;4.03;;;1.30;;
7359;SDS011;3720;48.274;7.796;2023-03-19T14:07:07;2.60;;;1.50;;
7359;SDS011;3720;48.274;7.796;2023-03-19T14:09:42;2.70;;;1.52;;
7359;SDS011;3720;48.274;7.796;2023-03-19T14:12:21;2.53;;;1.42;;
7359;SDS011;3720;48.274;7.796;2023-03-19T14:15:01;2.65;;;1.45;;
7359;SDS011;3720;48.274;7.796;2023-03-19T14:17:44;3.45;;;1.40;;
7359;SDS011;3720;48.274;7.796;2023-03-19T14:20:25;2.75;;;1.38;;
7359;SDS011;3720;48.274;7.796;2023-03-19T14:23:10;2.67;;;1.42;;
7359;SDS011;3720;48.274;7.796;2023-03-19T14:25:54;3.53;;;1.50;;
7359;SDS011;3720;48.274;7.796;2023-03-19T14:28:46;3.15;;;1.40;;
7359;SDS011;3720;48.274;7.796;2023-03-19T14:31:25;2.15;;;1.40;;
7359;SDS011;3720;48.274;7.796;2023-03-19T14:34:05;4.50;;;1.70;;
7359;SDS011;3720;48.274;7.796;2023-03-19T14:36:48;3.00;;;1.70;;
7359;SDS011;3720;48.274;7.796;2023-03-19T14:39:28;3.97;;;1.65;;
7359;SDS011;3720;48.274;7.796;2023-03-19T14:42:03;3.70;;;1.50;;
7359;SDS011;3720;48.274;7.796;2023-03-19T14:47:53;5.03;;;1.10;;
7359;SDS011;3720;48.274;7.796;2023-03-19T14:50:49;1.58;;;0.80;;
7359;SDS011;3720;48.274;7.796;2023-03-19T14:53:40;1.88;;;0.88;;
7359;SDS011;3720;48.274;7.796;2023-03-19T14:56:19;1.13;;;0.90;;
7359;SDS011;3720;48.274;7.796;2023-03-19T14:58:55;1.33;;;0.90;;
7359;SDS011;3720;48.274;7.796;2023-03-19T15:01:32;1.42;;;0.98;;
7359;SDS011;3720;48.274;7.796;2023-03-19T15:04:09;1.50;;;0.82;;
7359;SDS011;3720;48.274;7.796;2023-03-19T15:06:46;2.92;;;1.00;;
7359;SDS011;3720;48.274;7.796;2023-03-19T15:09:24;1.55;;;0.95;;
7359;SDS011;3720;48.274;7.796;2023-03-19T15:12:12;1.52;;;0.80;;
7359;SDS011;3720;48.274;7.796;2023-03-19T15:15:07;1.10;;;0.70;;
7359;SDS011;3720;48.274;7.796;2023-03-19T15:17:50;2.55;;;0.90;;
7359;SDS011;3720;48.274;7.796;2023-03-19T15:20:29;1.10;;;0.60;;
7359;SDS011;3720;48.274;7.796;2023-03-19T15:23:07;1.33;;;0.55;;
7359;SDS011;3720;48.274;7.796;2023-03-19T15:25:44;0.88;;;0.60;;
7359;SDS011;3720;48.274;7.796;2023-03-19T15:28:18;0.80;;;0.60;;
7359;SDS011;3720;48.274;7.796;2023-03-19T15:30:54;2.15;;;0.60;;
7359;SDS011;3720;48.274;7.796;2023-03-19T15:33:30;0.57;;;0.50;;
7359;SDS011;3720;48.274;7.796;2023-03-19T15:36:05;0.52;;;0.40;;
7359;SDS011;3720;48.274;7.796;2023-03-19T15:38:41;0.87;;;0.47;;
7359;SDS011;3720;48.274;7.796;2023-03-19T15:41:15;0.90;;;0.50;;
7359;SDS011;3720;48.274;7.796;2023-03-19T15:43:50;0.40;;;0.30;;
7359;SDS011;3720;48.274;7.796;2023-03-19T15:46:23;0.50;;;0.40;;
7359;SDS011;3720;48.274;7.796;2023-03-19T15:48:57;0.63;;;0.40;;
7359;SDS011;3720;48.274;7.796;2023-03-19T15:51:36;0.73;;;0.40;;
7359;SDS011;3720;48.274;7.796;2023-03-19T15:54:10;0.45;;;0.40;;
7359;SDS011;3720;48.274;7.796;2023-03-19T15:56:42;0.60;;;0.40;;
7359;SDS011;3720;48.274;7.796;2023-03-19T15:59:16;0.73;;;0.40;;
7359;SDS011;3720;48.274;7.796;2023-03-19T16:01:51;0.38;;;0.30;;
7359;SDS011;3720;48.274;7.796;2023-03-19T16:04:26;0.30;;;0.30;;
7359;SDS011;3720;48.274;7.796;2023-03-19T16:07:01;0.40;;;0.40;;
7359;SDS011;3720;48.274;7.796;2023-03-19T16:09:34;0.77;;;0.50;;
7359;SDS011;3720;48.274;7.796;2023-03-19T16:12:21;1.90;;;0.40;;
7359;SDS011;3720;48.274;7.796;2023-03-19T16:15:27;0.55;;;0.40;;
7359;SDS011;3720;48.274;7.796;2023-03-19T16:18:20;0.70;;;0.38;;
7359;SDS011;3720;48.274;7.796;2023-03-19T16:20:58;0.40;;;0.40;;